Time;durP1;ratioP1;P1;durP2;ratioP2;P2;SDS_P1;SDS_P2;PMS_P1;PMS_P2;Temp;Humidity;BMP_temperature;BMP_pressure;BME280_temperature;BME280_humidity;BME280_pressure;Samples;Min_cycle;Max_cycle;Signal;HPM_P1;HPM_P2
2022/09/20 00:00:49;;;;;;;10.27;3.30;;;;;;;10.44;81.83;100674.91;5109861;28;20556;-65
2022/09/20 00:03:16;;;;;;;8.50;2.50;;;;;;;10.44;82.15;100674.91;5123089;28;21027;-65
2022/09/20 00:05:45;;;;;;;12.80;2.60;;;;;;;10.28;82.41;100675.34;5105084;28;20496;-65
2022/09/20 00:08:14;;;;;;;7.33;2.50;;;;;;;10.32;82.56;100674.13;5124158;28;20423;-65
2022/09/20 00:10:41;;;;;;;11.30;2.57;;;;;;;10.28;82.45;100680.69;5122844;27;20501;-66
2022/09/20 00:13:10;;;;;;;8.00;2.30;;;;;;;10.25;82.42;100680.94;5106027;28;20450;-66
2022/09/20 00:15:40;;;;;;;10.20;2.10;;;;;;;10.17;82.93;100675.38;5102501;28;20490;-66
2022/09/20 00:18:07;;;;;;;8.33;1.90;;;;;;;10.12;83.38;100680.25;5114008;28;20493;-65
2022/09/20 00:20:34;;;;;;;7.33;1.97;;;;;;;10.16;83.58;100687.03;5105667;28;20485;-65
2022/09/20 00:23:03;;;;;;;13.17;2.97;;;;;;;10.12;83.46;100681.13;5103046;28;20446;-65
2022/09/20 00:25:32;;;;;;;9.30;2.20;;;;;;;10.23;83.33;100682.88;5109640;28;20481;-65
2022/09/20 00:27:58;;;;;;;7.50;2.10;;;;;;;10.22;83.28;100686.53;5108894;28;20468;-65
2022/09/20 00:30:25;;;;;;;5.77;1.77;;;;;;;10.27;82.84;100681.63;5097262;28;20459;-65
2022/09/20 00:32:51;;;;;;;8.13;2.60;;;;;;;10.21;83.10;100690.19;5101351;28;20467;-65
2022/09/20 00:35:17;;;;;;;9.57;2.13;;;;;;;10.29;82.74;100681.50;5115451;28;20503;-64
2022/09/20 00:37:44;;;;;;;6.30;1.70;;;;;;;10.22;83.14;100681.19;5122345;28;20438;-64
2022/09/20 00:40:14;;;;;;;8.93;2.30;;;;;;;10.24;82.76;100683.72;5106436;28;20228;-65
2022/09/20 00:42:42;;;;;;;6.30;1.80;;;;;;;10.24;83.14;100692.59;5110718;28;20484;-65
2022/09/20 00:45:13;;;;;;;16.57;2.00;;;;;;;10.26;82.98;100692.44;5122142;28;20513;-65
2022/09/20 00:47:42;;;;;;;6.47;2.33;;;;;;;10.21;83.45;100694.66;5107688;28;20517;-65
2022/09/20 00:50:25;;;;;;;8.17;2.70;;;;;;;10.17;83.56;100694.06;5101010;28;20893;-65
2022/09/20 00:52:55;;;;;;;7.03;2.37;;;;;;;10.13;83.75;100697.97;5101618;28;20482;-66
2022/09/20 00:55:22;;;;;;;9.93;2.20;;;;;;;10.16;84.01;100695.06;5101125;28;20534;-66
2022/09/20 00:57:50;;;;;;;9.53;1.97;;;;;;;10.21;83.71;100698.19;5112097;28;20550;-66
2022/09/20 01:00:17;;;;;;;6.70;2.57;;;;;;;10.24;83.77;100699.75;5113267;28;20468;-66
2022/09/20 01:02:46;;;;;;;6.37;2.63;;;;;;;10.22;83.94;100696.38;5110526;28;20434;-65
2022/09/20 01:05:14;;;;;;;10.40;2.00;;;;;;;10.24;83.84;100691.75;5102873;28;20451;-64
2022/09/20 01:07:42;;;;;;;12.13;3.10;;;;;;;10.22;84.11;100699.88;5117555;28;20462;-65
2022/09/20 01:10:09;;;;;;;8.90;1.73;;;;;;;10.36;84.07;100688.06;5121146;28;20442;-64
2022/09/20 01:12:39;;;;;;;6.40;1.40;;;;;;;10.43;83.27;100693.75;5109868;28;20467;-65
2022/09/20 01:15:08;;;;;;;4.70;1.63;;;;;;;10.40;83.20;100702.03;5104907;28;20450;-65
2022/09/20 01:17:37;;;;;;;7.10;1.87;;;;;;;10.49;82.99;100695.94;5106556;28;21055;-65
2022/09/20 01:20:11;;;;;;;4.43;1.53;;;;;;;10.41;83.26;100685.88;5101880;28;20484;-65
2022/09/20 01:22:48;;;;;;;9.23;2.13;;;;;;;10.34;83.40;100693.53;5105689;28;20481;-65
2022/09/20 01:25:16;;;;;;;8.43;1.90;;;;;;;10.16;84.19;100690.56;5114009;28;20452;-64
2022/09/20 01:27:46;;;;;;;10.97;2.40;;;;;;;10.11;84.36;100695.44;5113852;28;20478;-64
2022/09/20 01:30:14;;;;;;;5.77;1.67;;;;;;;10.00;85.03;100698.16;5100524;28;20483;-65
2022/09/20 01:32:49;;;;;;;5.10;1.97;;;;;;;9.94;85.70;100704.81;5108272;28;20513;-65
2022/09/20 01:35:18;;;;;;;6.73;1.50;;;;;;;9.91;85.77;100696.22;5104149;28;20466;-64
2022/09/20 01:37:53;;;;;;;6.80;1.60;;;;;;;9.87;86.33;100703.63;5120335;28;20929;-64
2022/09/20 01:40:25;;;;;;;7.50;1.33;;;;;;;9.82;86.23;100705.81;5121069;28;20454;-64
2022/09/20 01:43:00;;;;;;;7.47;1.73;;;;;;;9.75;86.61;100710.81;5120775;28;20469;-64
2022/09/20 01:45:29;;;;;;;6.73;1.40;;;;;;;9.77;86.92;100702.69;5120330;28;20525;-64
2022/09/20 01:48:04;;;;;;;4.50;1.63;;;;;;;9.69;86.92;100711.31;5111822;28;20443;-65
2022/09/20 01:50:37;;;;;;;8.50;1.77;;;;;;;9.64;87.17;100702.84;5109821;28;20562;-66
2022/09/20 01:53:46;;;;;;;9.20;1.90;;;;;;;9.62;87.33;100704.78;5110107;28;20475;-65
2022/09/20 01:56:40;;;;;;;5.90;2.17;;;;;;;9.48;87.76;100713.03;5118848;28;20502;-65
2022/09/20 01:59:56;;;;;;;6.43;2.37;;;;;;;9.51;88.08;100715.47;5101586;28;20474;-65
2022/09/20 02:02:52;;;;;;;6.03;1.60;;;;;;;9.38;88.40;100700.41;5054822;28;20508;-65
2022/09/20 02:06:02;;;;;;;5.20;1.80;;;;;;;9.40;88.79;100708.31;5073800;28;20474;-64
2022/09/20 02:09:01;;;;;;;8.90;2.17;;;;;;;9.34;88.49;100706.13;5067976;28;20434;-64
2022/09/20 02:11:29;;;;;;;7.10;2.17;;;;;;;9.36;88.53;100705.03;5097629;28;20483;-68
2022/09/20 02:14:06;;;;;;;4.70;1.60;;;;;;;9.32;88.52;100705.38;5109068;28;20437;-66
2022/09/20 02:16:44;;;;;;;5.47;2.07;;;;;;;9.32;88.69;100713.41;5107006;28;20508;-66
2022/09/20 02:19:26;;;;;;;9.03;2.03;;;;;;;9.30;88.71;100705.50;5111012;28;20474;-65
2022/09/20 02:22:08;;;;;;;8.37;2.17;;;;;;;9.23;89.08;100707.84;5100078;28;21065;-67
2022/09/20 02:24:40;;;;;;;8.10;2.10;;;;;;;9.33;88.88;100707.09;5108152;28;20446;-66
2022/09/20 02:27:16;;;;;;;5.60;2.30;;;;;;;9.29;89.10;100705.63;5109196;28;20482;-65
2022/09/20 02:29:50;;;;;;;5.00;1.90;;;;;;;9.28;89.16;100704.78;5097700;28;20454;-65
2022/09/20 02:32:29;;;;;;;6.73;1.80;;;;;;;9.33;89.06;100707.09;5100115;28;20518;-65
2022/09/20 02:35:09;;;;;;;3.33;2.20;;;;;;;9.27;89.54;100700.44;5099799;28;20462;-65
2022/09/20 02:38:08;;;;;;;5.40;1.83;;;;;;;9.28;89.61;100699.44;5099151;28;20490;-64
2022/09/20 02:41:06;;;;;;;3.37;1.33;;;;;;;9.32;89.48;100711.59;5090993;28;20463;-65
2022/09/20 02:43:35;;;;;;;3.20;1.70;;;;;;;9.31;89.65;100706.38;5079924;28;20525;-69
2022/09/20 02:46:08;;;;;;;7.17;1.63;;;;;;;9.35;89.58;100707.81;5101523;28;20478;-65
2022/09/20 02:48:42;;;;;;;3.80;1.43;;;;;;;9.35;89.48;100710.50;5105100;28;20505;-65
2022/09/20 02:51:14;;;;;;;11.47;2.37;;;;;;;9.37;89.48;100706.75;5099565;28;20494;-65
2022/09/20 02:53:47;;;;;;;9.60;2.07;;;;;;;9.33;89.18;100710.59;5099649;28;20471;-66
2022/09/20 02:56:19;;;;;;;5.33;2.20;;;;;;;9.35;89.03;100705.16;5109948;28;20484;-66
2022/09/20 02:58:57;;;;;;;6.40;1.77;;;;;;;9.23;89.23;100705.16;5097650;28;20443;-65
2022/09/20 03:01:41;;;;;;;5.77;1.50;;;;;;;9.21;89.54;100709.75;5098909;28;20513;-65
2022/09/20 03:04:21;;;;;;;5.37;1.67;;;;;;;9.18;89.78;100703.81;5111862;28;20843;-65
2022/09/20 03:06:53;;;;;;;3.83;1.10;;;;;;;9.21;89.82;100703.56;5118043;28;20538;-64
2022/09/20 03:09:29;;;;;;;5.50;1.50;;;;;;;9.18;89.96;100707.34;5120414;28;20454;-64
2022/09/20 03:12:03;;;;;;;4.63;1.10;;;;;;;9.16;90.17;100711.94;5107761;28;20575;-65
2022/09/20 03:14:37;;;;;;;10.70;1.90;;;;;;;9.22;90.02;100710.63;5099535;28;20478;-64
2022/09/20 03:17:15;;;;;;;8.80;1.57;;;;;;;9.15;89.89;100712.91;5099147;28;20506;-64
2022/09/20 03:19:51;;;;;;;6.40;1.47;;;;;;;9.15;89.77;100707.59;5107446;28;20544;-64
2022/09/20 03:22:26;;;;;;;5.80;1.27;;;;;;;9.19;89.85;100711.69;5119413;28;20465;-64
2022/09/20 03:25:09;;;;;;;5.07;1.33;;;;;;;9.22;89.70;100719.47;5109199;28;20489;-65
2022/09/20 03:27:42;;;;;;;4.37;1.97;;;;;;;9.11;89.42;100714.09;5096451;28;20451;-66
2022/09/20 03:30:28;;;;;;;8.47;1.40;;;;;;;9.08;89.73;100721.50;5099596;28;20450;-65
2022/09/20 03:33:03;;;;;;;5.67;1.53;;;;;;;9.08;89.76;100722.38;5099633;28;20534;-66
2022/09/20 03:35:42;;;;;;;8.13;1.60;;;;;;;9.14;90.28;100718.38;5113932;28;20504;-65
2022/09/20 03:38:26;;;;;;;7.10;2.47;;;;;;;9.23;89.92;100725.63;5118377;28;20504;-66
2022/09/20 03:41:08;;;;;;;10.83;2.53;;;;;;;9.21;89.93;100727.59;5119512;28;20478;-65
2022/09/20 03:43:49;;;;;;;4.83;1.63;;;;;;;9.27;89.90;100724.44;5114212;28;20501;-65
2022/09/20 03:46:17;;;;;;;10.60;2.43;;;;;;;9.30;89.76;100724.19;5115740;28;20490;-65
2022/09/20 03:49:15;;;;;;;4.33;1.50;;;;;;;9.31;89.62;100719.72;5098923;28;20455;-66
2022/09/20 03:51:46;;;;;;;8.27;3.50;;;;;;;9.37;89.45;100722.75;5104077;28;20793;-65
2022/09/20 03:54:44;;;;;;;5.77;2.00;;;;;;;9.45;89.31;100724.81;5119464;28;20931;-66
2022/09/20 03:57:52;;;;;;;5.73;2.23;;;;;;;9.55;89.28;100732.94;5117587;28;20514;-66
2022/09/20 04:00:24;;;;;;;10.40;1.67;;;;;;;9.62;89.49;100734.16;5083085;28;20446;-66
2022/09/20 04:03:24;;;;;;;6.63;1.50;;;;;;;9.65;89.48;100725.03;5097287;28;20454;-67
2022/09/20 04:06:05;;;;;;;10.00;2.20;;;;;;;9.73;89.06;100726.13;5098010;28;20479;-65
2022/09/20 04:08:50;;;;;;;3.87;1.20;;;;;;;9.78;89.12;100731.94;5106128;28;21872;-66
2022/09/20 04:11:24;;;;;;;10.63;2.50;;;;;;;9.83;88.96;100730.72;5116722;28;20501;-65
2022/09/20 04:13:56;;;;;;;6.63;1.63;;;;;;;9.84;88.47;100735.09;5123350;28;20465;-66
2022/09/20 04:16:33;;;;;;;7.30;2.90;;;;;;;9.89;88.58;100731.06;5122005;27;20500;-65
2022/09/20 04:19:04;;;;;;;8.50;1.70;;;;;;;9.88;88.29;100741.88;5097391;28;20843;-65
2022/09/20 04:21:36;;;;;;;6.20;1.47;;;;;;;9.97;87.99;100743.81;5099733;28;20479;-66
2022/09/20 04:24:08;;;;;;;9.30;2.23;;;;;;;9.92;88.11;100733.47;5102449;28;20500;-66
2022/09/20 04:26:39;;;;;;;7.60;1.80;;;;;;;9.79;88.61;100738.97;5096630;28;20959;-66
2022/09/20 04:29:19;;;;;;;14.13;2.97;;;;;;;9.93;88.21;100737.00;5094666;28;20493;-67
2022/09/20 04:31:49;;;;;;;6.03;2.43;;;;;;;9.83;88.37;100738.75;5093154;28;20505;-66
2022/09/20 04:34:19;;;;;;;6.20;2.60;;;;;;;9.86;88.53;100738.47;5100768;28;20487;-72
2022/09/20 04:37:01;;;;;;;5.57;2.00;;;;;;;9.89;88.67;100732.88;5094401;28;20479;-71
2022/09/20 04:39:39;;;;;;;5.87;2.40;;;;;;;9.79;88.83;100738.09;5082921;28;20455;-69
2022/09/20 04:42:34;;;;;;;5.50;2.83;;;;;;;9.79;89.39;100736.31;5107319;28;20478;-70
2022/09/20 04:45:17;;;;;;;10.00;3.30;;;;;;;9.75;89.54;100736.66;5120044;28;20498;-72
2022/09/20 04:48:31;;;;;;;9.40;4.27;;;;;;;9.68;90.15;100743.47;5116617;28;20470;-72
2022/09/20 04:51:42;;;;;;;8.73;4.53;;;;;;;9.73;89.99;100738.63;5094503;28;20507;-73
2022/09/20 04:54:24;;;;;;;9.77;4.60;;;;;;;9.72;90.04;100747.59;5103121;28;20528;-72
2022/09/20 04:57:05;;;;;;;6.40;4.97;;;;;;;9.76;90.00;100752.56;5103325;28;21015;-72
2022/09/20 04:59:44;;;;;;;9.50;5.53;;;;;;;9.68;90.24;100756.81;5109238;28;20446;-71
2022/09/20 05:02:32;;;;;;;11.00;5.37;;;;;;;9.74;90.20;100751.00;5097157;28;20984;-73
2022/09/20 05:05:28;;;;;;;14.50;5.83;;;;;;;9.71;89.72;100759.25;5099955;28;20956;-72
2022/09/20 05:08:34;;;;;;;10.37;5.47;;;;;;;9.66;89.84;100753.44;5095591;28;20473;-71
2022/09/20 05:11:24;;;;;;;11.33;5.13;;;;;;;9.54;90.41;100769.44;5110513;28;20539;-72
2022/09/20 05:14:17;;;;;;;10.93;5.43;;;;;;;9.64;90.24;100774.91;5111590;28;20511;-72
2022/09/20 05:16:58;;;;;;;15.63;5.23;;;;;;;9.69;89.83;100779.91;5103434;28;21007;-70
2022/09/20 05:19:32;;;;;;;7.93;4.63;;;;;;;9.68;89.96;100775.53;5094964;28;20540;-66
2022/09/20 05:22:12;;;;;;;15.40;5.00;;;;;;;9.74;89.42;100775.03;5091620;28;20486;-70
2022/09/20 05:24:59;;;;;;;8.07;4.83;;;;;;;9.78;88.94;100781.81;5101122;28;20489;-68
2022/09/20 05:27:36;;;;;;;10.13;5.13;;;;;;;9.87;88.43;100781.09;5111474;28;20479;-72
2022/09/20 05:30:07;;;;;;;9.40;4.83;;;;;;;10.03;87.86;100785.19;5121747;28;20442;-70
2022/09/20 05:32:41;;;;;;;11.17;3.73;;;;;;;9.99;87.04;100785.44;5118787;28;20466;-72
2022/09/20 05:35:17;;;;;;;7.00;4.30;;;;;;;10.08;87.00;100789.19;5106048;28;20991;-68
2022/09/20 05:37:48;;;;;;;11.93;5.20;;;;;;;10.06;86.71;100793.81;5121489;28;20433;-72
2022/09/20 05:40:22;;;;;;;10.80;3.90;;;;;;;10.10;85.90;100792.59;5121074;28;20534;-71
2022/09/20 05:42:53;;;;;;;8.83;4.37;;;;;;;10.16;85.93;100796.59;5120330;28;20431;-71
2022/09/20 05:45:45;;;;;;;8.03;3.23;;;;;;;10.30;85.02;100800.81;5120613;28;20474;-70
2022/09/20 05:48:14;;;;;;;7.33;3.77;;;;;;;10.22;84.93;100801.41;5118986;28;20553;-72
2022/09/20 05:50:46;;;;;;;9.03;3.80;;;;;;;10.21;85.28;100799.75;5100088;28;20466;-70
2022/09/20 05:53:39;;;;;;;10.87;4.20;;;;;;;10.34;84.66;100802.28;5100237;28;20623;-71
2022/09/20 05:56:12;;;;;;;16.47;4.50;;;;;;;10.58;83.88;100806.59;5098575;28;20506;-71
2022/09/20 05:58:47;;;;;;;9.00;3.70;;;;;;;10.60;83.69;100802.81;5100963;28;20427;-72
2022/09/20 06:01:20;;;;;;;13.40;3.37;;;;;;;10.60;83.54;100821.53;5099675;28;20477;-72
2022/09/20 06:03:53;;;;;;;9.97;3.90;;;;;;;10.57;83.22;100815.59;5098647;28;20454;-71
2022/09/20 06:06:23;;;;;;;10.13;3.57;;;;;;;10.65;82.93;100815.81;5099981;28;20467;-72
2022/09/20 06:09:21;;;;;;;9.40;3.20;;;;;;;10.68;83.06;100811.06;5098454;28;20451;-73
2022/09/20 06:12:00;;;;;;;14.07;3.33;;;;;;;10.87;82.24;100822.91;5057857;28;20494;-73
2022/09/20 06:14:37;;;;;;;8.70;2.83;;;;;;;10.78;82.08;100818.28;5097813;28;20494;-70
2022/09/20 06:17:11;;;;;;;6.67;2.60;;;;;;;10.69;82.23;100822.59;5098372;28;20505;-72
2022/09/20 06:19:44;;;;;;;9.87;3.30;;;;;;;10.78;82.25;100820.97;5097074;28;20482;-72
2022/09/20 06:22:16;;;;;;;9.10;3.30;;;;;;;10.69;82.50;100822.59;5099204;28;20558;-71
2022/09/20 06:24:46;;;;;;;8.87;3.00;;;;;;;10.66;82.29;100826.38;5099926;28;20443;-72
2022/09/20 06:27:14;;;;;;;8.13;3.43;;;;;;;10.66;82.73;100823.72;5090499;28;20486;-71
2022/09/20 06:29:44;;;;;;;12.23;3.47;;;;;;;10.75;82.27;100830.13;5099762;28;20867;-71
2022/09/20 06:32:11;;;;;;;15.90;3.27;;;;;;;10.66;82.80;100828.19;5098877;28;20542;-71
2022/09/20 06:34:38;;;;;;;6.17;2.77;;;;;;;10.72;83.05;100827.69;5098147;28;20483;-71
2022/09/20 06:42:53;;;;;;;6.60;2.77;;;;;;;10.77;82.83;100830.00;5099716;28;20443;-72
2022/09/20 06:45:20;;;;;;;9.17;3.03;;;;;;;10.84;82.90;100829.34;5098644;28;20925;-72
2022/09/20 06:47:47;;;;;;;7.23;2.60;;;;;;;10.95;82.91;100823.09;5098227;28;20550;-73
2022/09/20 06:50:15;;;;;;;8.83;3.20;;;;;;;10.84;83.27;100826.66;5098329;28;20485;-72
2022/09/20 06:52:45;;;;;;;8.53;3.00;;;;;;;10.90;82.77;100833.31;5099171;28;20435;-72
2022/09/20 06:55:17;;;;;;;6.70;2.60;;;;;;;11.01;82.47;100837.78;5096839;28;20494;-72
2022/09/20 06:57:44;;;;;;;5.57;3.00;;;;;;;11.21;82.49;100836.09;5096249;28;20964;-71
2022/09/20 07:00:14;;;;;;;8.00;3.20;;;;;;;11.41;81.92;100845.94;5097897;28;20503;-70
2022/09/20 07:02:41;;;;;;;5.93;2.57;;;;;;;11.55;81.17;100847.44;5098457;28;20492;-73
2022/09/20 07:05:13;;;;;;;5.87;2.57;;;;;;;11.65;80.41;100853.72;5098174;27;21284;-73
2022/09/20 07:07:42;;;;;;;7.57;2.90;;;;;;;11.69;80.35;100855.13;5098394;28;20462;-73
2022/09/20 07:10:11;;;;;;;6.63;2.60;;;;;;;11.74;80.40;100856.56;5097707;28;20926;-71
2022/09/20 07:12:38;;;;;;;6.83;3.00;;;;;;;11.86;80.19;100852.81;5094732;28;20435;-73
2022/09/20 07:15:06;;;;;;;5.60;2.33;;;;;;;11.59;79.88;100859.56;5093971;28;20465;-72
2022/09/20 07:17:32;;;;;;;6.40;2.60;;;;;;;11.72;80.50;100854.03;5096478;28;20467;-72
2022/09/20 07:19:59;;;;;;;6.80;2.43;;;;;;;11.79;79.94;100857.88;5098554;28;20455;-72
2022/09/20 07:22:26;;;;;;;7.87;2.90;;;;;;;12.04;79.27;100859.25;5098725;28;20482;-71
2022/09/20 07:24:53;;;;;;;9.27;2.23;;;;;;;12.04;79.21;100859.25;5097614;28;20801;-72
2022/09/20 07:27:21;;;;;;;7.60;2.70;;;;;;;12.18;79.13;100860.72;5098528;28;20487;-72
2022/09/20 07:29:48;;;;;;;5.80;3.10;;;;;;;11.62;79.48;100870.03;5099007;28;20435;-71
2022/09/20 07:32:16;;;;;;;5.23;2.10;;;;;;;11.69;80.11;100870.34;5097006;28;20478;-70
2022/09/20 07:34:43;;;;;;;8.30;2.47;;;;;;;11.87;79.47;100874.13;5097859;28;20508;-71
2022/09/20 07:37:10;;;;;;;4.60;2.50;;;;;;;12.31;78.07;100881.06;5098279;28;20874;-72
2022/09/20 07:39:37;;;;;;;6.83;2.30;;;;;;;12.23;77.42;100876.41;5097848;28;20486;-72
2022/09/20 07:42:05;;;;;;;8.83;2.60;;;;;;;12.25;77.03;100877.13;5099209;28;20463;-71
2022/09/20 07:44:33;;;;;;;6.37;2.17;;;;;;;12.80;75.18;100876.69;5102643;28;20494;-72
2022/09/20 07:47:00;;;;;;;4.97;2.43;;;;;;;12.72;74.67;100885.41;5101474;28;20475;-71
2022/09/20 07:49:29;;;;;;;8.03;2.90;;;;;;;12.59;75.13;100885.69;5101730;28;20472;-71
2022/09/20 07:51:56;;;;;;;6.00;2.37;;;;;;;12.97;74.61;100888.56;5102179;28;20470;-68
2022/09/20 07:54:22;;;;;;;8.43;2.60;;;;;;;12.69;74.30;100880.34;5101839;28;20462;-71
2022/09/20 07:56:49;;;;;;;6.80;2.30;;;;;;;12.90;74.46;100884.75;5096482;28;20482;-70
2022/09/20 07:59:16;;;;;;;5.40;2.80;;;;;;;13.60;72.24;100887.28;5097446;28;20515;-69
2022/09/20 08:01:44;;;;;;;6.53;2.23;;;;;;;14.16;68.74;100891.75;5101034;28;20471;-73
2022/09/20 08:04:11;;;;;;;11.63;2.63;;;;;;;14.16;68.34;100888.22;5104261;28;21014;-73
2022/09/20 08:06:39;;;;;;;6.80;2.67;;;;;;;13.68;68.97;100890.06;5098469;28;21072;-71
2022/09/20 08:09:06;;;;;;;7.43;2.20;;;;;;;13.83;68.29;100896.66;5100640;28;20446;-72
2022/09/20 08:11:34;;;;;;;5.03;2.13;;;;;;;13.41;69.26;100899.72;5102382;28;20467;-72
2022/09/20 08:14:01;;;;;;;7.43;2.40;;;;;;;13.40;69.94;100900.72;5102510;28;20466;-72
2022/09/20 08:16:29;;;;;;;8.90;2.10;;;;;;;13.85;68.67;100905.47;5095890;28;20498;-73
2022/09/20 08:18:58;;;;;;;10.83;2.37;;;;;;;14.20;67.59;100908.44;5100896;28;20475;-72
2022/09/20 08:21:27;;;;;;;6.20;1.73;;;;;;;14.47;66.32;100904.91;5101760;28;20471;-73
2022/09/20 08:23:53;;;;;;;5.87;2.10;;;;;;;14.63;65.82;100902.47;5101465;28;20416;-73
2022/09/20 08:26:23;;;;;;;4.43;1.77;;;;;;;14.93;66.07;100902.22;5101419;28;20475;-70
2022/09/20 08:28:52;;;;;;;15.30;2.80;;;;;;;15.73;62.43;100911.19;5101945;28;20470;-72
2022/09/20 08:31:21;;;;;;;10.50;2.23;;;;;;;15.21;62.69;100909.25;5100737;28;20498;-72
2022/09/20 08:33:49;;;;;;;6.10;2.37;;;;;;;14.94;64.06;100912.03;5101712;28;20490;-69
2022/09/20 08:36:18;;;;;;;5.00;1.80;;;;;;;14.99;64.00;100907.84;5097412;28;20558;-72
2022/09/20 08:38:45;;;;;;;5.87;1.67;;;;;;;14.81;64.60;100913.25;5101177;28;20420;-72
2022/09/20 08:41:14;;;;;;;10.47;1.93;;;;;;;14.94;64.87;100912.03;5101375;28;20490;-70
2022/09/20 08:43:45;;;;;;;4.77;1.80;;;;;;;14.50;64.88;100904.63;5102245;28;20475;-73
2022/09/20 08:46:15;;;;;;;6.40;1.70;;;;;;;14.45;65.70;100910.44;5100709;28;20467;-70
2022/09/20 08:48:41;;;;;;;5.80;2.27;;;;;;;14.66;65.77;100907.50;5100925;28;20508;-73
2022/09/20 08:51:10;;;;;;;9.53;1.97;;;;;;;14.54;65.62;100916.75;5101379;28;20482;-72
2022/09/20 08:53:43;;;;;;;2.90;1.30;;;;;;;14.98;64.84;100913.41;5099603;28;20498;-73
2022/09/20 08:56:10;;;;;;;4.53;1.30;;;;;;;14.68;66.02;100913.59;5099171;27;20498;-73
2022/09/20 08:58:38;;;;;;;6.27;2.50;;;;;;;15.17;64.54;100920.47;5101606;28;20425;-72
2022/09/20 09:01:11;;;;;;;6.80;2.47;;;;;;;15.10;64.06;100914.03;5100195;28;20482;-72
2022/09/20 09:03:38;;;;;;;2.60;1.80;;;;;;;15.93;61.78;100924.47;5096421;28;20482;-75
2022/09/20 09:06:05;;;;;;;6.93;2.40;;;;;;;17.50;57.09;100915.84;5092813;28;20478;-75
2022/09/20 09:08:35;;;;;;;6.30;1.60;;;;;;;17.09;57.36;100908.56;5100507;28;20427;-72
2022/09/20 09:11:08;;;;;;;7.53;1.60;;;;;;;20.09;48.06;100915.81;5101328;28;20502;-75
2022/09/20 09:13:39;;;;;;;5.00;1.97;;;;;;;21.32;46.12;100914.16;5101458;28;20469;-75
2022/09/20 09:16:09;;;;;;;8.93;2.50;;;;;;;22.93;41.21;100911.38;5099420;28;20527;-75
2022/09/20 09:18:39;;;;;;;4.33;1.53;;;;;;;21.56;43.08;100914.78;5094223;28;20985;-76
2022/09/20 09:21:09;;;;;;;9.43;1.40;;;;;;;21.32;43.68;100914.16;5092892;28;20472;-75
2022/09/20 09:23:41;;;;;;;7.23;1.60;;;;;;;20.55;46.65;100912.84;5100337;28;20526;-75
2022/09/20 09:26:16;;;;;;;6.07;1.77;;;;;;;19.47;49.33;100911.47;5099908;28;20476;-75
2022/09/20 09:28:42;;;;;;;5.70;1.80;;;;;;;19.42;49.28;100912.00;5099524;28;20505;-75
2022/09/20 09:31:14;;;;;;;5.47;1.70;;;;;;;19.33;48.72;100911.22;5098760;28;20893;-75
2022/09/20 09:33:44;;;;;;;5.83;1.73;;;;;;;19.63;49.07;100918.59;5090348;28;20535;-74
2022/09/20 09:36:14;;;;;;;7.33;2.20;;;;;;;20.02;47.49;100920.31;5101519;28;20482;-75
2022/09/20 09:38:47;;;;;;;12.47;2.20;;;;;;;20.16;47.36;100922.16;5092996;28;20641;-75
2022/09/20 09:41:30;;;;;;;4.90;1.67;;;;;;;19.58;47.70;100916.44;5101539;28;20487;-73
2022/09/20 09:44:00;;;;;;;8.73;1.80;;;;;;;19.31;48.39;100923.28;5101990;28;20552;-74
2022/09/20 09:46:32;;;;;;;13.13;1.97;;;;;;;19.61;48.29;100916.06;5099893;28;20469;-74
2022/09/20 09:49:08;;;;;;;7.27;1.50;;;;;;;18.68;50.70;100919.75;5100243;28;20456;-75
2022/09/20 09:51:36;;;;;;;3.50;1.20;;;;;;;19.42;49.80;100914.72;5098346;28;20504;-74
2022/09/20 09:54:03;;;;;;;8.67;1.97;;;;;;;19.29;49.88;100909.09;5100684;28;20497;-75
2022/09/20 09:56:41;;;;;;;2.97;1.17;;;;;;;18.32;49.38;100918.41;5101166;28;20457;-75
2022/09/20 09:59:19;;;;;;;4.67;1.50;;;;;;;18.89;49.97;100916.47;5101996;28;20512;-74
2022/09/20 10:01:55;;;;;;;3.57;1.27;;;;;;;19.16;49.41;100910.50;5099268;28;20635;-74
2022/09/20 10:04:25;;;;;;;4.60;1.40;;;;;;;18.76;49.75;100920.56;5101154;28;20451;-73
2022/09/20 10:06:58;;;;;;;4.80;1.57;;;;;;;17.86;51.53;100924.47;5098180;28;20537;-72
2022/09/20 10:09:34;;;;;;;3.50;1.43;;;;;;;17.09;55.14;100915.84;5100187;28;20444;-74
2022/09/20 10:12:19;;;;;;;5.03;1.30;;;;;;;16.46;57.33;100922.56;5101158;28;20477;-74
2022/09/20 10:14:56;;;;;;;6.20;2.30;;;;;;;15.69;59.93;100923.25;5099871;28;20471;-74
2022/09/20 10:17:38;;;;;;;5.40;1.90;;;;;;;14.91;64.13;100920.38;5100224;28;20510;-69
2022/09/20 10:20:21;;;;;;;4.73;1.70;;;;;;;14.87;64.83;100923.38;5100691;28;20482;-74
2022/09/20 10:22:53;;;;;;;7.33;2.00;;;;;;;14.66;67.43;100926.34;5089808;28;21160;-73
2022/09/20 10:25:38;;;;;;;8.93;1.77;;;;;;;14.26;69.44;100940.97;5098705;28;20849;-72
2022/09/20 10:28:17;;;;;;;5.10;2.27;;;;;;;13.69;73.59;100934.75;5099417;28;20450;-73
2022/09/20 10:30:53;;;;;;;4.23;1.17;;;;;;;13.80;71.22;100942.69;5089906;28;20498;-73
2022/09/20 10:33:27;;;;;;;6.13;1.53;;;;;;;13.08;73.92;100939.41;5093994;28;20459;-73
2022/09/20 10:36:06;;;;;;;6.70;1.93;;;;;;;13.27;76.53;100943.09;5099523;28;20841;-73
2022/09/20 10:38:36;;;;;;;4.67;1.40;;;;;;;13.05;77.54;100954.97;5094504;28;20485;-72
2022/09/20 10:44:15;;;;;;;6.23;1.40;;;;;;;13.12;78.62;100948.03;5098433;28;20831;-74
2022/09/20 10:46:51;;;;;;;9.23;1.50;;;;;;;13.24;78.22;100954.13;5099142;28;20474;-74
2022/09/20 10:49:23;;;;;;;4.97;3.17;;;;;;;13.43;76.11;100951.47;5098335;28;20477;-76
2022/09/20 10:52:03;;;;;;;5.23;1.73;;;;;;;13.78;74.34;100951.84;5097683;28;20553;-75
2022/09/20 10:54:40;;;;;;;3.87;1.63;;;;;;;13.63;76.48;100946.94;5093631;28;20470;-73
2022/09/20 10:57:21;;;;;;;3.03;0.90;;;;;;;14.18;74.04;100951.59;5099661;28;20482;-75
2022/09/20 10:59:52;;;;;;;4.57;0.97;;;;;;;14.49;74.26;100945.97;5094119;28;20479;-74
2022/09/20 11:02:36;;;;;;;1.40;0.70;;;;;;;14.25;74.33;100950.03;5100799;28;20976;-75
2022/09/20 11:05:28;;;;;;;2.67;0.90;;;;;;;14.64;72.82;100947.19;5100660;28;20486;-72
2022/09/20 11:08:01;;;;;;;7.13;1.33;;;;;;;14.91;73.91;100948.16;5100308;28;20467;-73
2022/09/20 11:10:29;;;;;;;4.43;0.87;;;;;;;14.76;72.32;100953.22;5078950;28;20479;-74
2022/09/20 11:12:59;;;;;;;1.17;1.07;;;;;;;14.74;72.41;100951.66;5095873;28;20949;-74
2022/09/20 11:15:30;;;;;;;3.83;1.20;;;;;;;14.42;73.14;100958.31;5091313;28;20497;-74
2022/09/20 11:18:03;;;;;;;5.23;1.00;;;;;;;14.29;72.36;100951.44;5092279;28;20462;-74
2022/09/20 11:20:32;;;;;;;2.83;1.13;;;;;;;14.29;73.00;100956.81;5099656;28;20592;-73
2022/09/20 11:23:02;;;;;;;7.17;1.07;;;;;;;15.07;70.51;100958.28;5100135;28;20479;-74
2022/09/20 11:25:33;;;;;;;4.03;1.20;;;;;;;16.36;65.79;100955.06;5099479;28;20481;-74
2022/09/20 11:28:04;;;;;;;5.67;0.80;;;;;;;16.80;64.81;100959.44;5100389;28;20458;-74
2022/09/20 11:30:33;;;;;;;4.13;1.37;;;;;;;17.09;64.23;100957.19;5097033;28;20463;-72
2022/09/20 11:33:08;;;;;;;2.20;0.90;;;;;;;16.98;64.32;100956.66;5099274;28;20459;-74
2022/09/20 11:35:38;;;;;;;2.93;1.00;;;;;;;16.99;65.79;100959.19;5098179;28;20490;-73
2022/09/20 11:38:10;;;;;;;3.03;0.97;;;;;;;16.99;62.40;100958.34;5098149;28;20468;-74
2022/09/20 11:40:39;;;;;;;1.97;0.73;;;;;;;17.54;60.87;100963.16;5098462;28;20464;-74
2022/09/20 11:43:08;;;;;;;5.60;0.90;;;;;;;17.50;57.85;100965.34;5099065;28;20428;-74
2022/09/20 11:45:39;;;;;;;2.67;1.30;;;;;;;16.84;61.05;100966.25;5097714;28;20498;-73
2022/09/20 11:48:10;;;;;;;1.17;0.50;;;;;;;16.64;59.15;100954.84;5098216;28;20451;-74
2022/09/20 11:50:47;;;;;;;7.53;0.90;;;;;;;16.41;60.63;100954.59;5097054;28;20467;-73
2022/09/20 11:53:23;;;;;;;2.33;0.60;;;;;;;17.11;58.27;100954.31;5099047;28;20454;-74
2022/09/20 11:55:57;;;;;;;2.47;0.47;;;;;;;17.17;56.48;100956.38;5097717;28;20546;-73
2022/09/20 11:58:26;;;;;;;5.10;1.00;;;;;;;17.18;57.13;100952.66;5098066;28;20515;-74
2022/09/20 12:00:55;;;;;;;0.83;0.53;;;;;;;16.89;59.04;100951.25;5097950;28;20478;-73
2022/09/20 12:03:28;;;;;;;4.37;0.73;;;;;;;17.66;57.50;100952.84;5099146;28;20420;-73
2022/09/20 12:05:59;;;;;;;1.60;0.60;;;;;;;18.50;53.90;100957.94;5095935;28;20608;-74
2022/09/20 12:08:28;;;;;;;5.43;0.77;;;;;;;18.32;53.89;100955.47;5099159;28;20478;-75